3AK0 weather

Wolfe Point Heliport
Ketchikan, Alaska, United States

Public forecast

Using degrees Fahrenheit for public forecast. Weather courtesy of forecast.io.

Closest aviation weather report (METAR) to Wolfe Point Heliport

Closest report is Ketchikan International Airport, 0.5 nm (0.8 km) SSW. Retrieved 2019/11/12 14:43 UTC (14 minutes ago):

PAKT 121443Z AUTO 13013KT 2SM -RA BR OVC008 09/08 A2970

Closest aviation forecast (TAF) to Wolfe Point Heliport

Closest forecast is Ketchikan International Airport, 0.5 nm (0.8 km) SSW. Retrieved 2019/11/12 12:42 UTC (2 hours ago):

TAF PAKT 121140Z 1212/1312 14015G25KT 5SM -RA BR BKN012 OVC022 WS020/17035KT TEMPO 1212/1216 3SM RA BR FM121700 15011KT 4SM -RA BR OVC015 FM130000 15008KT 6SM -RA BR OVC022 AMD LTD TO CLD VIS AND WIND 1212/1215